ノヴォシビルスク の空港の天気 - METARとTAF

トルマチェヴォ空港(ノヴォシビルスク) ( UNNT / OVB ) - ロシア ノヴォシビルスク
飛行場実況気象(Metar)
観測時間07/17 15:00 OMST (07/17 09:00 UTC)
風向・風速北北東 6m/s
視程10km以上
天気現象
なし
気温25℃
湿度41%
気圧1008hPa
METARUNNT 170900Z 03006MPS CAVOK 25/11 Q1008 R07/090070 R34/090070 NOSIG RMK QFE746/0995
過去の天気等 Google飛行場航空写真 Wunderground天気予報

過去48時間のMETAR

飛行場予報(TAF)
発表時間: 7/17 14:00 OMST (7/17 08:00 UTC)
予報対象時間: 17日15時 OMST ~ 18日15時 OMST
風向・風速北東 8m/s 瞬間風速 16m/s
視程10km以上
なし
17日15時 OMST ~ 17日19時 OMST に一時的に
風向・風速北北東 3m/s 瞬間風速 8m/s
17日19時 OMST ~ 17日21時 OMST に徐々に
風向・風速北北東 3m/s 瞬間風速 8m/s
18日9時 OMST ~ 18日15時 OMST に一時的に
風向・風速北東 8m/s 瞬間風速 13m/s
TAF UNNT 170800Z 1709/1809 04008G16MPS CAVOK
TEMPO 1709/1713 03003G08MPS
BECMG 1713/1715 02003G08MPS
TEMPO 1803/1809 04008G13MPS